createdAt,value
2022-10-19T00:02:48.654Z,10.16
2022-10-19T00:07:51.033Z,10.15
2022-10-19T00:12:53.443Z,10.17
2022-10-19T00:17:55.906Z,10.22
2022-10-19T00:22:58.267Z,10.25
2022-10-19T00:28:00.828Z,10.30
2022-10-19T00:33:04.596Z,10.30
2022-10-19T00:38:07.041Z,10.30
2022-10-19T00:43:18.166Z,10.36
2022-10-19T00:48:23.506Z,10.42
2022-10-19T00:53:27.082Z,10.41
2022-10-19T00:58:30.023Z,10.36
2022-10-19T01:03:33.271Z,10.30
2022-10-19T01:08:35.661Z,10.28
2022-10-19T01:13:41.052Z,10.30
2022-10-19T01:18:47.092Z,10.30
2022-10-19T01:23:51.421Z,10.26
2022-10-19T01:28:56.878Z,10.22
2022-10-19T01:34:05.548Z,10.18
2022-10-19T01:39:12.874Z,10.14
2022-10-19T01:44:19.007Z,10.10
2022-10-19T01:49:41.401Z,10.05
2022-10-19T01:54:47.306Z,10.03
2022-10-19T01:59:50.240Z,10.08
2022-10-19T02:04:53.537Z,10.18
2022-10-19T02:09:56.338Z,10.25
2022-10-19T02:15:01.392Z,10.30
2022-10-19T02:20:03.968Z,10.34
2022-10-19T02:25:06.788Z,10.34
2022-10-19T02:30:10.325Z,10.31
2022-10-19T02:35:13.759Z,10.29
2022-10-19T02:40:16.355Z,10.26
2022-10-19T02:45:22.842Z,10.27
2022-10-19T02:50:25.535Z,10.29
2022-10-19T02:55:28.701Z,10.28
2022-10-19T03:00:31.169Z,10.26
2022-10-19T03:05:33.537Z,10.25
2022-10-19T03:10:35.903Z,10.22
2022-10-19T03:15:38.375Z,10.17
2022-10-19T03:20:40.820Z,10.14
2022-10-19T03:25:43.199Z,10.11
2022-10-19T03:30:45.591Z,10.05
2022-10-19T03:35:48.055Z,10.06
2022-10-19T03:40:50.403Z,10.10
2022-10-19T03:45:52.766Z,10.14
2022-10-19T03:50:58.120Z,10.18
2022-10-19T03:56:03.842Z,10.24
2022-10-19T04:01:08.014Z,10.28
2022-10-19T04:06:14.857Z,10.28
2022-10-19T04:11:21.720Z,10.27
2022-10-19T04:16:25.102Z,10.25
2022-10-19T04:21:29.108Z,10.20
2022-10-19T04:26:31.715Z,10.19
2022-10-19T04:31:34.228Z,10.21
2022-10-19T04:36:36.872Z,10.22
2022-10-19T04:41:39.386Z,10.21
2022-10-19T04:46:41.820Z,10.20
2022-10-19T04:51:44.298Z,10.24
2022-10-19T04:56:46.648Z,10.31
2022-10-19T05:01:49.049Z,10.43
2022-10-19T05:06:52.182Z,10.51
2022-10-19T05:11:54.725Z,10.51
2022-10-19T05:16:57.166Z,10.45
2022-10-19T05:21:59.608Z,10.42
2022-10-19T05:27:02.008Z,10.39
2022-10-19T05:32:04.630Z,10.37
2022-10-19T05:37:07.021Z,10.37
2022-10-19T05:42:09.427Z,10.35
2022-10-19T05:54:14.334Z,10.38
2022-10-19T05:59:18.770Z,10.42
2022-10-19T06:04:21.195Z,10.48
2022-10-19T06:09:23.695Z,10.54
2022-10-19T06:14:26.089Z,10.61
2022-10-19T06:19:29.669Z,10.70
2022-10-19T06:24:32.909Z,10.76
2022-10-19T06:29:36.050Z,10.82
2022-10-19T06:34:39.119Z,10.93
2022-10-19T06:39:41.533Z,11.03
2022-10-19T06:44:44.076Z,11.18
2022-10-19T06:49:46.960Z,11.26
2022-10-19T06:54:50.537Z,11.30
2022-10-19T06:59:53.785Z,11.34
2022-10-19T07:04:56.651Z,11.44
2022-10-19T07:09:59.104Z,11.47
2022-10-19T07:15:01.492Z,11.46
2022-10-19T07:20:04.187Z,11.49
2022-10-19T07:31:29.318Z,11.60
2022-10-19T07:36:35.851Z,11.61
2022-10-19T07:41:38.602Z,11.53
2022-10-19T07:46:41.274Z,11.43
2022-10-19T07:51:46.748Z,11.41
2022-10-19T07:56:49.205Z,11.30
2022-10-19T08:01:53.528Z,11.34
2022-10-19T08:06:56.082Z,11.37
2022-10-19T08:11:58.983Z,11.42
2022-10-19T08:17:02.861Z,11.47
2022-10-19T08:22:05.569Z,11.54
2022-10-19T08:27:08.062Z,11.70
2022-10-19T08:32:10.571Z,11.74
2022-10-19T08:37:25.822Z,11.65
2022-10-19T08:42:47.765Z,11.66
2022-10-19T08:47:53.145Z,11.75
2022-10-19T08:52:58.465Z,11.86
2022-10-19T08:58:03.788Z,11.98
2022-10-19T09:03:09.063Z,12.12
2022-10-19T09:08:16.834Z,12.31
2022-10-19T09:13:22.814Z,12.56
2022-10-19T09:18:27.907Z,12.58
2022-10-19T09:23:37.103Z,12.48
2022-10-19T09:29:00.142Z,12.29
2022-10-19T09:34:08.810Z,12.17
2022-10-19T09:39:12.243Z,12.33
2022-10-19T09:44:16.142Z,12.58
2022-10-19T09:49:20.874Z,13.11
2022-10-19T09:54:26.587Z,12.91
2022-10-19T09:59:31.668Z,12.43
2022-10-19T10:04:36.401Z,12.11
2022-10-19T10:09:41.406Z,12.02
2022-10-19T10:14:44.683Z,11.82
2022-10-19T10:19:50.014Z,11.58
2022-10-19T10:24:54.329Z,11.74
2022-10-19T10:35:01.946Z,12.55
2022-10-19T10:40:06.404Z,13.01
2022-10-19T10:45:16.537Z,12.64
2022-10-19T10:50:22.795Z,11.72
2022-10-19T10:55:26.621Z,10.96
2022-10-19T11:00:29.509Z,10.60
2022-10-19T11:05:33.799Z,10.73
2022-10-19T11:10:46.484Z,11.05
2022-10-19T11:15:51.857Z,11.09
2022-10-19T11:20:59.936Z,11.02
2022-10-19T11:26:11.693Z,11.05
2022-10-19T11:31:20.494Z,10.79
2022-10-19T11:36:25.910Z,10.57
2022-10-19T11:41:29.431Z,10.85
2022-10-19T11:46:34.783Z,11.31
2022-10-19T11:51:37.162Z,11.96
2022-10-19T11:57:01.786Z,12.23
2022-10-19T12:02:12.052Z,11.52
2022-10-19T12:07:17.402Z,10.56
2022-10-19T12:12:22.713Z,10.04
2022-10-19T12:17:30.976Z,9.68
2022-10-19T12:22:34.189Z,9.80
2022-10-19T12:27:38.744Z,10.11
2022-10-19T12:32:50.800Z,10.41
2022-10-19T12:38:05.445Z,10.60
2022-10-19T12:43:12.365Z,10.89
2022-10-19T12:48:18.813Z,11.24
2022-10-19T12:53:24.273Z,11.41
2022-10-19T12:58:35.982Z,11.17
2022-10-19T13:03:41.178Z,10.85
2022-10-19T13:08:47.561Z,10.48
2022-10-19T13:13:52.073Z,10.15
2022-10-19T13:18:57.410Z,10.06
2022-10-19T13:24:19.431Z,10.07
2022-10-19T13:29:24.687Z,10.08
2022-10-19T13:34:28.099Z,10.08
2022-10-19T13:39:35.812Z,10.12
2022-10-19T13:44:45.420Z,10.12
2022-10-19T13:49:49.988Z,10.13
2022-10-19T13:54:55.356Z,10.17
2022-10-19T13:59:59.950Z,10.08
2022-10-19T14:05:05.287Z,10.05
2022-10-19T14:10:14.165Z,10.09
2022-10-19T14:15:18.535Z,10.61
2022-10-19T14:20:23.853Z,11.08
2022-10-19T14:25:27.660Z,11.13
2022-10-19T14:30:32.710Z,11.14
2022-10-19T14:35:39.466Z,10.72
2022-10-19T14:40:42.163Z,10.38
2022-10-19T14:45:44.587Z,10.21
2022-10-19T14:50:49.242Z,9.96
2022-10-19T14:55:54.980Z,9.61
2022-10-19T15:00:57.386Z,9.29
2022-10-19T15:06:01.219Z,9.11
2022-10-19T15:11:05.074Z,8.88
2022-10-19T15:16:26.823Z,8.52
2022-10-19T15:21:31.465Z,8.26
2022-10-19T15:26:36.225Z,8.10
2022-10-19T15:31:41.005Z,8.01
2022-10-19T15:36:53.694Z,7.99
2022-10-19T15:41:56.125Z,7.98
2022-10-19T15:47:01.727Z,8.02
2022-10-19T15:52:13.823Z,7.97
2022-10-19T15:57:19.250Z,7.86
2022-10-19T16:02:21.942Z,7.74
2022-10-19T16:07:26.221Z,7.71
2022-10-19T16:12:28.910Z,7.74
2022-10-19T16:17:32.325Z,7.77
2022-10-19T16:22:35.064Z,7.75
2022-10-19T16:27:37.874Z,7.68
2022-10-19T16:37:42.887Z,7.53
2022-10-19T16:42:45.330Z,7.52
2022-10-19T16:47:49.581Z,7.51
2022-10-19T16:52:54.972Z,7.54
2022-10-19T16:57:57.441Z,7.59
2022-10-19T17:02:59.842Z,7.62
2022-10-19T17:08:02.210Z,7.65
2022-10-19T17:13:04.609Z,7.66
2022-10-19T17:18:07.119Z,7.70
2022-10-19T17:23:09.582Z,7.75
2022-10-19T17:28:12.011Z,7.82
2022-10-19T17:33:14.679Z,7.85
2022-10-19T17:38:17.155Z,7.86
2022-10-19T17:43:19.603Z,7.83
2022-10-19T17:48:22.019Z,7.80
2022-10-19T17:53:24.663Z,7.72
2022-10-19T17:58:27.731Z,7.60
2022-10-19T18:03:31.513Z,7.47
2022-10-19T18:08:35.774Z,7.40
2022-10-19T18:13:38.815Z,7.39
2022-10-19T18:18:42.457Z,7.37
2022-10-19T18:23:45.276Z,7.33
2022-10-19T18:28:48.579Z,7.31
2022-10-19T18:33:53.925Z,7.32
2022-10-19T18:39:00.202Z,7.37
2022-10-19T18:44:05.022Z,7.43
2022-10-19T18:49:10.423Z,7.48
2022-10-19T18:54:12.877Z,7.51
2022-10-19T18:59:15.503Z,7.50
2022-10-19T19:04:18.314Z,7.46
2022-10-19T19:09:21.359Z,7.40
2022-10-19T19:14:26.043Z,7.37
2022-10-19T19:19:29.842Z,7.37
2022-10-19T19:24:32.806Z,7.34
2022-10-19T19:29:35.194Z,7.31
2022-10-19T19:34:37.833Z,7.27
2022-10-19T19:39:40.738Z,7.23
2022-10-19T19:44:43.112Z,7.20
2022-10-19T19:49:45.491Z,7.14
2022-10-19T19:54:48.421Z,7.03
2022-10-19T19:59:50.869Z,6.96
2022-10-19T20:04:53.274Z,6.90
2022-10-19T20:09:56.644Z,6.86
2022-10-19T20:14:59.023Z,6.87
2022-10-19T20:20:01.400Z,6.87
2022-10-19T20:25:04.314Z,6.86
2022-10-19T20:30:07.382Z,6.91
2022-10-19T20:35:09.807Z,6.97
2022-10-19T20:40:12.250Z,7.05
2022-10-19T20:45:14.957Z,7.10
2022-10-19T20:50:20.602Z,7.07
2022-10-19T20:55:24.467Z,7.02
2022-10-19T21:00:26.841Z,7.00
2022-10-19T21:05:29.293Z,7.01
2022-10-19T21:10:31.713Z,7.02
2022-10-19T21:15:34.094Z,7.01
2022-10-19T21:20:36.761Z,7.00
2022-10-19T21:25:39.170Z,6.99
2022-10-19T21:30:41.811Z,7.00
2022-10-19T21:35:44.209Z,6.99
2022-10-19T21:40:46.752Z,6.96
2022-10-19T21:45:49.167Z,6.97
2022-10-19T21:50:51.788Z,7.00
2022-10-19T21:55:56.507Z,7.03
2022-10-19T22:01:01.900Z,7.09
2022-10-19T22:06:04.349Z,7.13
2022-10-19T22:11:07.614Z,7.16
2022-10-19T22:16:12.775Z,7.17
2022-10-19T22:21:16.998Z,7.19
2022-10-19T22:26:21.709Z,7.19
2022-10-19T22:31:24.861Z,7.16
2022-10-19T22:36:27.302Z,7.13
2022-10-19T22:41:29.762Z,7.09
2022-10-19T22:46:32.483Z,7.07
2022-10-19T22:51:35.404Z,7.03
2022-10-19T22:56:38.122Z,7.01
2022-10-19T23:01:40.632Z,7.02
2022-10-19T23:06:43.235Z,7.04
2022-10-19T23:11:45.721Z,7.04
2022-10-19T23:16:48.131Z,7.03
2022-10-19T23:21:50.569Z,7.01
2022-10-19T23:26:53.558Z,6.98
2022-10-19T23:31:56.003Z,6.95
2022-10-19T23:36:58.482Z,6.88
2022-10-19T23:42:00.882Z,6.76
2022-10-19T23:47:03.355Z,6.66
2022-10-19T23:52:05.911Z,6.63
2022-10-19T23:57:08.351Z,6.66
